Time;durP1;ratioP1;P1;durP2;ratioP2;P2;SDS_P1;SDS_P2;PMS_P1;PMS_P2;Temp;Humidity;BMP_temperature;BMP_pressure;BME280_temperature;BME280_humidity;BME280_pressure;Samples;Min_cycle;Max_cycle;Signal;HPM_P1;HPM_P2
2022/11/21 00:00:40;;;;;;;11.38;7.28;;;2.20;99.90;;;;;;5033308;28;20398;-68
2022/11/21 00:03:06;;;;;;;13.38;7.55;;;2.50;99.90;;;;;;5032331;28;20092;-68
2022/11/21 00:05:32;;;;;;;10.50;7.38;;;1.60;99.90;;;;;;5033738;28;20088;-68
2022/11/21 00:07:58;;;;;;;11.75;7.60;;;1.60;99.90;;;;;;5032286;28;20068;-68
2022/11/21 00:10:25;;;;;;;13.07;7.93;;;1.60;99.90;;;;;;5033025;28;20533;-68
2022/11/21 00:12:56;;;;;;;11.40;7.88;;;1.70;99.90;;;;;;5033231;28;20084;-68
2022/11/21 00:15:24;;;;;;;12.80;7.70;;;1.70;99.90;;;;;;5032774;28;20128;-68
2022/11/21 00:17:50;;;;;;;12.15;7.70;;;2.20;99.90;;;;;;5032866;28;20053;-68
2022/11/21 00:20:18;;;;;;;10.45;7.25;;;3.10;99.90;;;;;;5033075;28;20494;-68
2022/11/21 00:22:44;;;;;;;10.90;7.53;;;1.70;99.90;;;;;;5032137;28;20574;-68
2022/11/21 00:25:09;;;;;;;13.55;8.52;;;2.20;99.90;;;;;;5037184;28;20057;-68
2022/11/21 00:27:35;;;;;;;12.05;8.20;;;1.70;99.90;;;;;;5040268;28;20088;-68
2022/11/21 00:30:01;;;;;;;14.15;8.20;;;1.70;99.90;;;;;;5039611;28;20179;-69
2022/11/21 00:32:27;;;;;;;11.88;8.00;;;1.70;99.90;;;;;;5039893;28;20068;-68
2022/11/21 00:34:52;;;;;;;11.55;7.88;;;1.70;99.90;;;;;;5039436;28;20071;-68
2022/11/21 00:37:18;;;;;;;12.07;8.05;;;1.70;99.90;;;;;;5039544;28;20041;-68
2022/11/21 00:39:43;;;;;;;12.60;8.57;;;1.60;99.90;;;;;;5038345;28;20052;-68
2022/11/21 00:42:09;;;;;;;11.88;7.30;;;1.70;99.90;;;;;;5039565;28;20099;-68
2022/11/21 00:44:35;;;;;;;13.93;8.40;;;2.80;99.90;;;;;;5038382;28;20041;-68
2022/11/21 00:47:01;;;;;;;11.73;7.50;;;1.80;99.90;;;;;;5040049;28;20049;-68
2022/11/21 00:49:27;;;;;;;12.55;8.02;;;1.70;99.90;;;;;;5039241;28;20064;-68
2022/11/21 00:51:52;;;;;;;13.18;8.45;;;1.80;99.90;;;;;;5039652;28;20095;-68
2022/11/21 00:54:18;;;;;;;11.38;7.70;;;1.80;99.90;;;;;;5039578;28;20140;-68
2022/11/21 00:56:43;;;;;;;13.70;8.18;;;2.20;99.90;;;;;;5040193;28;20068;-68
2022/11/21 00:59:10;;;;;;;12.27;8.05;;;2.50;99.90;;;;;;5039407;28;20084;-68
2022/11/21 01:01:36;;;;;;;11.52;8.00;;;1.80;99.90;;;;;;5039679;28;20083;-68
2022/11/21 01:04:01;;;;;;;11.88;8.18;;;1.70;99.90;;;;;;5038973;28;20042;-69
2022/11/21 01:06:27;;;;;;;12.48;8.20;;;1.70;99.90;;;;;;5039336;28;20045;-69
2022/11/21 01:08:53;;;;;;;11.43;7.78;;;1.70;99.90;;;;;;5039292;28;20131;-68
2022/11/21 01:11:20;;;;;;;13.82;8.00;;;1.70;99.90;;;;;;5039992;28;20056;-68
2022/11/21 01:13:47;;;;;;;12.07;8.07;;;1.70;99.90;;;;;;5038497;28;20382;-68
2022/11/21 01:16:21;;;;;;;10.43;7.57;;;1.70;99.90;;;;;;5040024;28;20489;-68
2022/11/21 01:18:48;;;;;;;12.83;7.77;;;1.70;99.90;;;;;;5038792;28;20091;-68
2022/11/21 01:21:21;;;;;;;12.55;7.80;;;3.00;99.90;;;;;;5039290;28;20089;-68
2022/11/21 01:23:47;;;;;;;15.25;8.15;;;1.70;99.90;;;;;;5048379;28;20389;-68
2022/11/21 01:26:18;;;;;;;13.32;7.70;;;3.20;99.90;;;;;;5059144;28;20504;-68
2022/11/21 01:28:44;;;;;;;12.00;7.68;;;1.50;99.90;;;;;;5059349;28;20037;-68
2022/11/21 01:31:19;;;;;;;11.90;8.23;;;1.50;99.90;;;;;;5059629;28;20092;-68
2022/11/21 01:33:45;;;;;;;12.82;8.00;;;1.40;99.90;;;;;;5060019;28;20418;-68
2022/11/21 01:36:20;;;;;;;10.77;7.45;;;1.80;99.90;;;;;;5056280;28;20045;-68
2022/11/21 01:38:51;;;;;;;11.05;7.40;;;3.00;99.90;;;;;;5055802;28;20099;-68
2022/11/21 01:41:20;;;;;;;12.23;7.82;;;1.30;99.90;;;;;;5056090;28;20045;-68
2022/11/21 01:43:49;;;;;;;12.95;8.23;;;1.30;99.90;;;;;;5056516;28;20041;-68
2022/11/21 01:46:16;;;;;;;11.30;7.38;;;1.20;99.90;;;;;;5056596;28;20048;-68
2022/11/21 01:49:01;;;;;;;11.00;7.90;;;1.20;99.90;;;;;;5055330;28;20048;-68
2022/11/21 01:51:32;;;;;;;11.48;7.63;;;1.30;99.90;;;;;;5056175;28;20045;-68
2022/11/21 01:54:24;;;;;;;13.73;7.82;;;2.70;99.90;;;;;;5055600;28;20137;-68
2022/11/21 01:57:03;;;;;;;11.60;7.70;;;1.30;99.90;;;;;;5051799;28;20118;-68
2022/11/21 01:59:30;;;;;;;11.27;7.20;;;2.40;99.90;;;;;;5056042;28;20045;-68
2022/11/21 02:01:56;;;;;;;11.75;7.75;;;1.10;99.90;;;;;;5055408;28;20053;-68
2022/11/21 02:04:27;;;;;;;10.43;7.32;;;1.10;99.90;;;;;;5055887;28;20049;-68
2022/11/21 02:06:53;;;;;;;12.32;7.72;;;1.00;99.90;;;;;;5055160;28;20547;-68
2022/11/21 02:09:19;;;;;;;12.02;7.20;;;2.30;99.90;;;;;;5055293;28;20045;-68
2022/11/21 02:11:59;;;;;;;10.60;7.18;;;2.90;99.90;;;;;;5055320;28;20049;-68
2022/11/21 02:14:25;;;;;;;12.23;7.18;;;1.20;99.90;;;;;;5055564;28;20041;-68
2022/11/21 02:16:54;;;;;;;11.93;8.13;;;0.70;99.90;;;;;;5055159;28;20072;-69
2022/11/21 02:19:33;;;;;;;13.48;8.30;;;0.60;99.90;;;;;;5055787;28;20354;-68
2022/11/21 02:22:10;;;;;;;11.88;7.68;;;0.50;99.90;;;;;;5037845;28;20110;-68
2022/11/21 02:24:44;;;;;;;11.98;8.15;;;0.90;99.90;;;;;;5055233;28;20095;-68
2022/11/21 02:27:10;;;;;;;14.23;7.90;;;0.50;99.90;;;;;;5054971;28;20060;-68
2022/11/21 02:29:37;;;;;;;12.35;7.65;;;1.20;99.90;;;;;;5055489;28;20041;-68
2022/11/21 02:32:04;;;;;;;11.25;7.85;;;1.30;99.90;;;;;;5054920;28;20056;-68
2022/11/21 02:34:30;;;;;;;12.43;7.68;;;0.50;99.90;;;;;;5054901;28;20047;-68
2022/11/21 02:36:57;;;;;;;13.30;7.82;;;0.50;99.90;;;;;;5054743;28;20052;-68
2022/11/21 02:39:28;;;;;;;12.10;7.80;;;0.40;99.90;;;;;;5054735;28;20049;-68
2022/11/21 02:42:22;;;;;;;11.50;7.05;;;1.10;99.90;;;;;;5055350;28;20048;-68
2022/11/21 02:45:28;;;;;;;11.27;7.68;;;0.40;99.90;;;;;;5055594;28;20377;-68
2022/11/21 02:47:55;;;;;;;10.88;7.47;;;0.40;99.90;;;;;;5051046;28;20136;-68
2022/11/21 02:50:29;;;;;;;12.32;7.97;;;0.40;99.90;;;;;;5054393;28;20045;-68
2022/11/21 02:52:55;;;;;;;11.27;7.57;;;0.30;99.90;;;;;;5054504;28;20041;-68
2022/11/21 02:55:25;;;;;;;9.77;6.70;;;0.30;99.90;;;;;;5054483;28;20045;-68
2022/11/21 02:57:51;;;;;;;11.80;7.43;;;0.30;99.90;;;;;;5054681;28;20388;-68
2022/11/21 03:00:17;;;;;;;11.30;6.93;;;0.30;99.90;;;;;;5054633;28;20473;-68
2022/11/21 03:02:43;;;;;;;11.27;7.32;;;0.30;99.90;;;;;;5054763;28;20044;-68
2022/11/21 03:05:12;;;;;;;10.68;7.15;;;1.60;99.90;;;;;;5054263;28;20366;-68
2022/11/21 03:07:38;;;;;;;12.18;7.70;;;0.00;99.90;;;;;;5054238;28;20049;-68
2022/11/21 03:10:04;;;;;;;11.50;6.85;;;1.50;99.90;;;;;;5053905;28;20033;-68
2022/11/21 03:12:30;;;;;;;11.23;7.18;;;-0.20;99.90;;;;;;5054704;28;20041;-68
2022/11/21 03:14:55;;;;;;;11.68;7.25;;;-0.30;99.90;;;;;;5036583;28;20049;-68
2022/11/21 03:17:21;;;;;;;9.43;6.85;;;-0.30;99.90;;;;;;5054040;28;20052;-68
2022/11/21 03:19:47;;;;;;;10.25;6.35;;;-0.40;99.90;;;;;;5053743;28;20127;-68
2022/11/21 03:22:14;;;;;;;13.25;7.65;;;-0.50;99.90;;;;;;5054702;28;20127;-68
2022/11/21 03:24:40;;;;;;;12.02;7.75;;;-0.50;99.90;;;;;;5036040;28;20045;-68
2022/11/21 03:27:07;;;;;;;12.60;7.47;;;-0.60;99.90;;;;;;5036232;28;20049;-68
2022/11/21 03:29:32;;;;;;;10.15;6.95;;;-0.70;99.90;;;;;;5053766;28;20504;-68
2022/11/21 03:31:58;;;;;;;11.80;7.43;;;-0.80;99.90;;;;;;5036080;28;20049;-67
2022/11/21 03:34:24;;;;;;;9.55;6.38;;;-0.60;99.90;;;;;;5053477;28;20183;-68
2022/11/21 03:36:50;;;;;;;10.13;6.78;;;-1.20;99.90;;;;;;5053424;28;20508;-68
2022/11/21 03:39:16;;;;;;;11.68;7.50;;;-1.50;99.90;;;;;;5053533;28;20041;-68
2022/11/21 03:41:42;;;;;;;11.88;7.85;;;-1.60;99.90;;;;;;5053635;28;20041;-68
2022/11/21 03:44:10;;;;;;;11.93;7.28;;;-1.70;99.90;;;;;;5053509;28;20051;-67
2022/11/21 03:46:44;;;;;;;11.60;7.88;;;-1.80;99.90;;;;;;5054090;28;20126;-68
2022/11/21 03:49:10;;;;;;;10.63;7.50;;;-1.80;99.90;;;;;;5053472;28;20041;-68
2022/11/21 03:51:36;;;;;;;12.13;8.18;;;-1.70;99.90;;;;;;5054014;28;20045;-68
2022/11/21 03:54:03;;;;;;;13.45;8.25;;;-0.10;99.90;;;;;;5053489;28;20084;-68
2022/11/21 03:56:29;;;;;;;14.52;8.52;;;-1.50;99.90;;;;;;5053429;28;20090;-68
2022/11/21 03:58:55;;;;;;;15.10;8.52;;;-1.50;99.90;;;;;;5053224;28;20135;-68
2022/11/21 04:01:21;;;;;;;12.20;7.45;;;-1.50;99.90;;;;;;5053881;28;20063;-67
2022/11/21 04:03:47;;;;;;;13.40;8.27;;;-1.40;99.90;;;;;;5053789;28;20083;-68
2022/11/21 04:06:16;;;;;;;17.45;8.68;;;-1.30;99.90;;;;;;5035775;28;20048;-68
2022/11/21 04:08:42;;;;;;;14.65;9.05;;;-1.20;99.90;;;;;;5053291;28;20124;-68
2022/11/21 04:11:08;;;;;;;11.68;7.30;;;-1.10;99.90;;;;;;5053222;28;20140;-68
2022/11/21 04:13:33;;;;;;;13.63;8.23;;;-0.80;99.90;;;;;;5035615;28;20127;-68
2022/11/21 04:15:59;;;;;;;14.80;8.60;;;-1.10;99.90;;;;;;5036449;28;20365;-68
2022/11/21 04:18:25;;;;;;;14.70;8.50;;;-0.10;99.90;;;;;;5053636;28;20098;-68
2022/11/21 04:21:01;;;;;;;12.73;8.45;;;-1.00;99.90;;;;;;5053002;28;20083;-68
2022/11/21 04:23:27;;;;;;;12.02;7.20;;;-1.00;99.90;;;;;;5052937;28;20056;-68
2022/11/21 04:25:54;;;;;;;13.20;8.02;;;-1.00;99.90;;;;;;5053741;28;20194;-68
2022/11/21 04:28:20;;;;;;;12.85;7.70;;;-0.30;99.90;;;;;;5052728;28;20543;-68
2022/11/21 04:30:46;;;;;;;12.93;7.45;;;-1.00;99.90;;;;;;5052827;28;20055;-68
2022/11/21 04:33:14;;;;;;;12.50;8.00;;;-1.10;99.90;;;;;;5053290;28;20132;-68
2022/11/21 04:35:41;;;;;;;10.27;7.32;;;-1.10;99.90;;;;;;5052835;28;20051;-68
2022/11/21 04:38:06;;;;;;;13.45;7.95;;;-0.90;99.90;;;;;;5052695;28;20041;-68
2022/11/21 04:40:33;;;;;;;12.85;8.02;;;-1.30;99.90;;;;;;5052961;28;20049;-68
2022/11/21 04:42:58;;;;;;;12.65;8.00;;;-1.30;99.90;;;;;;5052932;28;20045;-68
2022/11/21 04:45:24;;;;;;;12.20;7.07;;;-1.50;99.90;;;;;;5052962;28;20110;-68
2022/11/21 04:47:50;;;;;;;10.57;6.85;;;-1.50;99.90;;;;;;5036005;28;20106;-68
2022/11/21 04:50:17;;;;;;;14.48;7.80;;;-1.60;99.90;;;;;;5052759;28;20511;-68
2022/11/21 04:52:49;;;;;;;13.23;8.35;;;-1.60;99.90;;;;;;5052823;28;20041;-69
2022/11/21 04:55:15;;;;;;;13.32;8.20;;;-1.10;99.90;;;;;;5052785;28;20053;-68
2022/11/21 04:57:41;;;;;;;12.50;7.97;;;-1.70;99.90;;;;;;5053404;28;20056;-68
2022/11/21 05:00:07;;;;;;;13.35;7.43;;;-1.60;99.90;;;;;;5052755;28;20051;-68
2022/11/21 05:02:33;;;;;;;12.30;8.00;;;-1.60;99.90;;;;;;5052659;28;20045;-68
2022/11/21 05:04:59;;;;;;;13.63;8.55;;;-1.50;99.90;;;;;;5035120;28;20045;-68
2022/11/21 05:07:24;;;;;;;11.95;7.95;;;-1.40;99.90;;;;;;5052699;28;20178;-68
2022/11/21 05:09:50;;;;;;;14.00;8.50;;;-1.30;99.90;;;;;;5053096;28;20048;-68
2022/11/21 05:15:00;;;;;;;13.60;8.38;;;0.00;99.90;;;;;;5056560;28;20071;-68
2022/11/21 05:17:28;;;;;;;12.18;8.45;;;0.20;99.90;;;;;;5056818;28;20053;-68
2022/11/21 05:19:53;;;;;;;11.93;7.78;;;-1.20;99.90;;;;;;5056642;28;20053;-68
2022/11/21 05:22:19;;;;;;;13.10;8.18;;;-1.10;99.90;;;;;;5056268;28;20045;-68
2022/11/21 05:24:45;;;;;;;12.63;8.38;;;-0.60;99.90;;;;;;5056271;28;20093;-68
2022/11/21 05:27:10;;;;;;;13.77;8.63;;;0.00;99.90;;;;;;5056148;28;20040;-68
2022/11/21 05:29:36;;;;;;;11.85;8.13;;;-0.10;99.90;;;;;;5038311;28;20041;-68
2022/11/21 05:32:02;;;;;;;13.63;8.68;;;-0.20;99.90;;;;;;5055821;28;20052;-68
2022/11/21 05:34:27;;;;;;;15.48;8.05;;;-1.10;99.90;;;;;;5056305;28;20084;-68
2022/11/21 05:36:56;;;;;;;14.35;9.30;;;-1.10;99.90;;;;;;5056257;28;20053;-68
2022/11/21 05:39:22;;;;;;;13.90;8.80;;;-1.10;99.90;;;;;;5055806;28;20045;-69
2022/11/21 05:41:47;;;;;;;13.73;9.10;;;-1.10;99.90;;;;;;5055825;28;20103;-68
2022/11/21 05:44:13;;;;;;;13.00;8.57;;;-1.30;99.90;;;;;;5038964;28;20049;-68
2022/11/21 05:46:39;;;;;;;14.15;8.45;;;-1.40;99.90;;;;;;5056303;28;20470;-68
2022/11/21 05:49:04;;;;;;;13.40;8.45;;;-1.60;99.90;;;;;;5055590;28;20123;-68
2022/11/21 05:51:30;;;;;;;13.98;8.40;;;-1.00;99.90;;;;;;5056306;28;20049;-68
2022/11/21 05:53:56;;;;;;;15.80;9.30;;;-1.60;99.90;;;;;;5055810;28;20045;-68
2022/11/21 05:56:21;;;;;;;14.48;8.85;;;-1.50;99.90;;;;;;5055637;28;20401;-68
2022/11/21 05:58:47;;;;;;;12.82;8.18;;;-1.50;99.90;;;;;;5055916;28;20049;-68
2022/11/21 06:01:14;;;;;;;12.80;8.27;;;-1.40;99.90;;;;;;5055905;28;20040;-68
2022/11/21 06:03:41;;;;;;;14.35;8.07;;;-1.40;99.90;;;;;;5055436;28;20045;-68
2022/11/21 06:06:12;;;;;;;12.75;8.82;;;-1.30;99.90;;;;;;5055430;28;20106;-68
2022/11/21 06:08:40;;;;;;;13.55;8.18;;;-1.30;99.90;;;;;;5055756;28;20122;-68
2022/11/21 06:11:08;;;;;;;15.07;8.68;;;-1.30;99.90;;;;;;5055326;28;20128;-68
2022/11/21 06:13:35;;;;;;;14.52;8.88;;;-0.90;99.90;;;;;;5037432;28;20423;-68
2022/11/21 06:16:07;;;;;;;13.80;8.18;;;-1.30;99.90;;;;;;5055267;28;20456;-68
2022/11/21 06:18:35;;;;;;;11.98;8.70;;;-1.40;99.90;;;;;;5055558;28;20041;-69
2022/11/21 06:21:02;;;;;;;15.10;9.85;;;-1.00;99.90;;;;;;5037294;28;20048;-68
2022/11/21 06:23:28;;;;;;;15.45;9.68;;;-1.70;99.90;;;;;;5036511;28;20049;-68
2022/11/21 06:25:58;;;;;;;15.50;9.70;;;-1.60;99.90;;;;;;5055132;28;20060;-68
2022/11/21 06:28:25;;;;;;;15.05;9.02;;;-1.50;99.90;;;;;;5055327;28;20098;-68
2022/11/21 06:30:51;;;;;;;14.30;8.82;;;-1.50;99.90;;;;;;5054693;28;20521;-68
2022/11/21 06:33:17;;;;;;;14.32;9.20;;;-1.50;99.90;;;;;;5054685;28;20057;-68
2022/11/21 06:35:43;;;;;;;15.73;9.98;;;-1.40;99.90;;;;;;5054936;28;20037;-68
2022/11/21 06:38:09;;;;;;;13.93;8.82;;;-1.40;99.90;;;;;;5054824;28;20504;-69
2022/11/21 06:40:34;;;;;;;12.25;9.20;;;-1.30;99.90;;;;;;5054753;28;20045;-68
2022/11/21 06:43:00;;;;;;;13.60;9.25;;;-1.30;99.90;;;;;;5054449;28;20052;-68
2022/11/21 06:45:26;;;;;;;14.82;10.02;;;0.00;99.90;;;;;;5054825;28;20465;-68
2022/11/21 06:47:52;;;;;;;13.48;8.57;;;-1.30;99.90;;;;;;5054932;28;20063;-69
2022/11/21 06:50:18;;;;;;;14.90;9.18;;;-1.20;99.90;;;;;;5055267;28;20465;-68
2022/11/21 06:52:43;;;;;;;15.85;9.40;;;-0.60;99.90;;;;;;5054552;28;20107;-68
2022/11/21 06:55:10;;;;;;;14.73;9.13;;;-1.20;99.90;;;;;;5055251;28;20045;-68
2022/11/21 06:57:35;;;;;;;17.77;9.68;;;-1.20;99.90;;;;;;5054234;28;20125;-68
2022/11/21 07:00:03;;;;;;;15.30;9.30;;;-1.30;99.90;;;;;;5053705;28;20103;-68
2022/11/21 07:02:28;;;;;;;13.38;8.70;;;-1.30;99.90;;;;;;5036653;28;20059;-69
2022/11/21 07:04:54;;;;;;;15.38;9.35;;;-1.30;99.90;;;;;;5054154;28;20418;-68
2022/11/21 07:07:20;;;;;;;14.85;8.75;;;-1.40;99.90;;;;;;5054646;28;20048;-68
2022/11/21 07:09:46;;;;;;;16.55;8.90;;;-1.40;99.90;;;;;;5054607;28;20127;-68
2022/11/21 07:14:56;;;;;;;13.40;8.80;;;-1.40;99.90;;;;;;5039034;28;20106;-69
2022/11/21 07:17:22;;;;;;;14.68;9.77;;;-1.40;99.90;;;;;;5036306;28;20049;-65
2022/11/21 07:19:47;;;;;;;14.95;8.88;;;-1.30;99.90;;;;;;5053866;28;20045;-65
2022/11/21 07:22:13;;;;;;;14.95;9.75;;;-1.30;99.90;;;;;;5053980;28;20045;-65
2022/11/21 07:24:39;;;;;;;14.35;9.38;;;0.10;99.90;;;;;;5035968;28;20405;-65
2022/11/21 07:27:04;;;;;;;13.02;8.63;;;0.30;99.90;;;;;;5054449;28;20138;-65
2022/11/21 07:29:30;;;;;;;14.43;8.82;;;-0.60;99.90;;;;;;5053823;28;20127;-65
2022/11/21 07:31:56;;;;;;;12.85;8.52;;;-1.10;99.90;;;;;;5054171;28;20381;-66
2022/11/21 07:34:21;;;;;;;12.48;8.35;;;-1.10;99.90;;;;;;5053337;28;20462;-65
2022/11/21 07:36:47;;;;;;;13.73;8.20;;;0.30;99.90;;;;;;5053671;28;20096;-65
2022/11/21 07:39:13;;;;;;;13.90;8.63;;;-1.20;99.90;;;;;;5036087;28;20045;-65
2022/11/21 07:41:38;;;;;;;14.80;9.27;;;-1.20;99.90;;;;;;5053609;28;20378;-65
2022/11/21 07:44:04;;;;;;;15.60;9.55;;;-0.40;99.90;;;;;;5036022;28;20537;-65
2022/11/21 07:46:30;;;;;;;15.43;9.50;;;-1.20;99.90;;;;;;5053190;28;20045;-65
2022/11/21 07:48:55;;;;;;;15.45;10.07;;;-1.20;99.90;;;;;;5053504;28;20045;-65
2022/11/21 07:51:21;;;;;;;14.90;9.32;;;-1.10;99.90;;;;;;5053974;28;20064;-65
2022/11/21 07:53:47;;;;;;;15.30;10.43;;;0.50;99.90;;;;;;5053118;28;20109;-65
2022/11/21 07:56:12;;;;;;;17.45;10.07;;;-0.70;99.90;;;;;;5053921;28;20041;-65
2022/11/21 07:58:39;;;;;;;13.98;9.20;;;-1.00;99.90;;;;;;5053471;28;20037;-65
2022/11/21 08:01:06;;;;;;;13.63;8.35;;;-1.00;99.90;;;;;;5035456;28;20048;-65
2022/11/21 08:03:33;;;;;;;13.98;8.85;;;-0.90;99.90;;;;;;5053602;28;20053;-65
2022/11/21 08:06:02;;;;;;;15.00;9.25;;;-0.40;99.90;;;;;;5053318;28;20087;-65
2022/11/21 08:08:28;;;;;;;14.23;8.88;;;-0.90;99.90;;;;;;5053184;28;20048;-65
2022/11/21 08:10:54;;;;;;;15.40;9.68;;;-0.90;99.90;;;;;;5035669;28;20080;-66
2022/11/21 08:13:20;;;;;;;16.13;9.98;;;-0.90;99.90;;;;;;5053938;28;20091;-65
2022/11/21 08:15:46;;;;;;;16.60;10.18;;;-0.80;99.90;;;;;;5053101;28;20470;-65
2022/11/21 08:18:19;;;;;;;14.50;9.73;;;-0.80;99.90;;;;;;5052995;28;20049;-65
2022/11/21 08:20:45;;;;;;;13.77;9.18;;;-0.70;99.90;;;;;;5053026;28;20049;-69
2022/11/21 08:23:11;;;;;;;14.13;9.57;;;-0.30;99.90;;;;;;5053087;28;20133;-68
2022/11/21 08:25:38;;;;;;;15.50;9.27;;;-0.70;99.90;;;;;;5053059;28;20084;-69
2022/11/21 08:28:05;;;;;;;15.50;9.82;;;-0.70;99.90;;;;;;5052372;28;20085;-69
2022/11/21 08:30:31;;;;;;;15.43;9.40;;;-0.50;99.90;;;;;;5053577;28;20052;-69
2022/11/21 08:32:58;;;;;;;15.13;10.15;;;-0.60;99.90;;;;;;5052663;28;20526;-69
2022/11/21 08:35:27;;;;;;;14.73;9.52;;;-0.50;99.90;;;;;;5052519;28;20541;-69
2022/11/21 08:37:56;;;;;;;15.98;9.68;;;-0.50;99.90;;;;;;5052822;28;20053;-68
2022/11/21 08:40:23;;;;;;;16.70;9.27;;;-0.50;99.90;;;;;;5052711;28;20081;-68
2022/11/21 08:42:56;;;;;;;16.85;10.15;;;-0.40;99.90;;;;;;5052922;28;20370;-69
2022/11/21 08:45:21;;;;;;;14.88;10.05;;;-0.40;99.90;;;;;;5054291;28;20438;-68
2022/11/21 08:47:47;;;;;;;18.50;10.15;;;-0.30;99.90;;;;;;5056937;28;20095;-68
2022/11/21 08:50:13;;;;;;;16.15;10.10;;;1.20;99.90;;;;;;5057461;28;20054;-69
2022/11/21 08:52:38;;;;;;;15.00;9.90;;;-0.20;99.90;;;;;;5057293;28;20049;-70
2022/11/21 08:55:04;;;;;;;16.65;10.10;;;-0.10;99.90;;;;;;5057162;28;20106;-68
2022/11/21 08:57:30;;;;;;;14.43;9.48;;;0.00;99.90;;;;;;5056632;28;20135;-68
2022/11/21 08:59:56;;;;;;;17.48;11.48;;;0.10;99.90;;;;;;5056357;28;20172;-68
2022/11/21 09:02:21;;;;;;;15.18;9.73;;;0.10;99.90;;;;;;5056491;28;20076;-68
2022/11/21 09:04:47;;;;;;;13.57;9.18;;;0.20;99.90;;;;;;5056549;28;20052;-69
2022/11/21 09:07:13;;;;;;;14.88;10.55;;;1.20;99.90;;;;;;5056372;28;20049;-68
2022/11/21 09:09:38;;;;;;;16.45;10.05;;;0.40;99.90;;;;;;5056426;28;20045;-68
2022/11/21 09:12:04;;;;;;;14.02;9.32;;;1.10;99.90;;;;;;5056329;28;20131;-69
2022/11/21 09:19:58;;;;;;;14.23;9.65;;;0.80;99.90;;;;;;5056063;28;20072;-69
2022/11/21 09:22:25;;;;;;;15.90;10.35;;;1.30;99.90;;;;;;5056137;28;20470;-69
2022/11/21 09:24:51;;;;;;;16.15;10.73;;;1.00;99.90;;;;;;5055897;28;20616;-69
2022/11/21 09:27:16;;;;;;;15.07;10.07;;;1.10;99.90;;;;;;5038756;28;20132;-69
2022/11/21 09:29:42;;;;;;;16.88;10.10;;;1.20;99.90;;;;;;5056595;28;20380;-69
2022/11/21 09:32:08;;;;;;;17.38;10.85;;;2.30;99.90;;;;;;5056132;28;20138;-69
2022/11/21 09:34:33;;;;;;;14.52;9.95;;;1.50;99.90;;;;;;5056004;28;20045;-69
2022/11/21 09:36:59;;;;;;;16.15;10.15;;;1.50;99.90;;;;;;5038238;28;20041;-70
2022/11/21 09:39:24;;;;;;;16.35;9.52;;;1.60;99.90;;;;;;5056006;28;20127;-69
2022/11/21 09:42:21;;;;;;;16.48;10.50;;;2.80;99.90;;;;;;5055966;28;20211;-70
2022/11/21 09:45:06;;;;;;;14.05;9.45;;;1.50;99.90;;;;;;5056414;28;20150;-70
2022/11/21 09:47:41;;;;;;;15.60;10.40;;;1.40;99.90;;;;;;5055630;28;20410;-70
2022/11/21 09:50:12;;;;;;;17.52;10.85;;;1.40;99.90;;;;;;5055594;28;20119;-69
2022/11/21 09:52:40;;;;;;;17.13;10.60;;;1.40;99.90;;;;;;5055752;28;20049;-69
2022/11/21 09:55:16;;;;;;;15.23;10.10;;;2.80;99.90;;;;;;5055704;28;20045;-70
2022/11/21 09:57:43;;;;;;;14.88;10.02;;;2.20;99.90;;;;;;5054704;28;20045;-69
2022/11/21 10:00:22;;;;;;;15.00;10.18;;;1.50;99.90;;;;;;5055603;28;20045;-70
2022/11/21 10:02:50;;;;;;;18.88;11.20;;;1.50;99.90;;;;;;5055950;28;20045;-69
2022/11/21 10:05:16;;;;;;;16.15;10.43;;;1.50;99.90;;;;;;5037564;28;20045;-70
2022/11/21 10:07:43;;;;;;;15.75;9.65;;;2.10;99.90;;;;;;5055550;28;20049;-69
2022/11/21 10:10:30;;;;;;;16.98;10.25;;;2.50;99.90;;;;;;5055396;28;20052;-69
2022/11/21 10:13:21;;;;;;;19.23;10.98;;;1.60;99.90;;;;;;5055438;28;20055;-69
2022/11/21 10:16:08;;;;;;;16.73;11.52;;;1.50;99.90;;;;;;5009884;28;20075;-69
2022/11/21 10:18:53;;;;;;;18.75;11.38;;;1.60;99.90;;;;;;5055783;28;20045;-69
2022/11/21 10:21:33;;;;;;;17.33;11.02;;;1.90;99.90;;;;;;5055781;28;20056;-69
2022/11/21 10:24:17;;;;;;;17.23;11.10;;;1.60;99.90;;;;;;5055041;28;20061;-69
2022/11/21 10:26:59;;;;;;;17.70;11.30;;;1.60;99.90;;;;;;5055120;28;20473;-70
2022/11/21 10:29:42;;;;;;;15.98;10.43;;;1.60;99.90;;;;;;5054856;28;20482;-70
2022/11/21 10:32:13;;;;;;;18.98;10.93;;;1.50;99.90;;;;;;5038251;28;20082;-69
2022/11/21 10:34:39;;;;;;;15.45;10.55;;;1.60;99.90;;;;;;5054583;28;20135;-69
2022/11/21 10:37:23;;;;;;;19.10;11.27;;;1.60;99.90;;;;;;5037536;28;20132;-69
2022/11/21 10:39:51;;;;;;;16.90;10.35;;;1.60;99.90;;;;;;5054749;28;20549;-69
2022/11/21 10:42:33;;;;;;;18.23;11.23;;;1.70;99.90;;;;;;5054757;28;20124;-70
2022/11/21 10:45:21;;;;;;;18.88;11.55;;;1.70;99.90;;;;;;5054685;28;20044;-69
2022/11/21 10:47:51;;;;;;;18.80;12.43;;;2.50;99.90;;;;;;5054552;28;20064;-70
2022/11/21 10:50:45;;;;;;;21.25;12.38;;;3.00;99.90;;;;;;5054406;28;20049;-69
2022/11/21 10:56:14;;;;;;;18.10;11.77;;;1.80;99.90;;;;;;5054873;28;20056;-70
2022/11/21 10:58:46;;;;;;;20.00;12.10;;;1.80;99.90;;;;;;5054596;28;20048;-71
2022/11/21 11:01:24;;;;;;;18.55;11.05;;;1.90;99.90;;;;;;5054322;28;20206;-69
2022/11/21 11:04:09;;;;;;;16.95;10.18;;;2.00;99.90;;;;;;5054267;28;20059;-70
2022/11/21 11:06:36;;;;;;;14.88;9.95;;;2.20;99.90;;;;;;5054208;28;20071;-69
2022/11/21 11:09:03;;;;;;;14.20;9.32;;;2.40;99.90;;;;;;5053479;28;20138;-69
2022/11/21 11:11:28;;;;;;;14.20;8.93;;;2.40;99.90;;;;;;5054084;28;20063;-70
2022/11/21 11:14:04;;;;;;;14.73;8.32;;;4.00;99.90;;;;;;5054477;28;20041;-69
2022/11/21 11:16:33;;;;;;;13.77;8.48;;;3.10;99.90;;;;;;5036527;28;20048;-69
2022/11/21 11:19:00;;;;;;;12.75;8.10;;;2.50;99.90;;;;;;5053701;28;20044;-69
2022/11/21 11:21:38;;;;;;;14.23;8.68;;;2.60;99.90;;;;;;5054606;28;20067;-69
2022/11/21 11:24:13;;;;;;;12.75;8.05;;;2.70;99.90;;;;;;5053599;28;20110;-69
2022/11/21 11:26:50;;;;;;;11.52;7.15;;;2.70;99.90;;;;;;5054003;28;20202;-69
2022/11/21 11:29:22;;;;;;;11.13;7.43;;;2.80;99.90;;;;;;5036176;28;20048;-70
2022/11/21 11:31:59;;;;;;;11.55;6.60;;;3.00;99.90;;;;;;5054615;28;20041;-69
2022/11/21 11:34:38;;;;;;;10.10;6.25;;;3.10;99.90;;;;;;5053626;28;20049;-69
2022/11/21 11:37:39;;;;;;;11.25;6.90;;;3.20;99.90;;;;;;5053655;28;20466;-68
2022/11/21 11:40:20;;;;;;;11.50;7.03;;;3.30;99.90;;;;;;5034483;28;20056;-71
2022/11/21 11:49:23;;;;;;;9.35;6.00;;;3.20;99.90;;;;;;5053392;28;20053;-69
2022/11/21 11:51:55;;;;;;;11.38;7.15;;;3.10;99.90;;;;;;5053787;28;20393;-68
2022/11/21 11:54:27;;;;;;;9.85;7.00;;;3.50;99.90;;;;;;5053333;28;20056;-69
2022/11/21 11:56:54;;;;;;;10.68;7.10;;;3.10;99.90;;;;;;5053850;28;20486;-69
2022/11/21 11:59:35;;;;;;;10.38;6.40;;;3.20;99.90;;;;;;5053249;28;20049;-68
2022/11/21 12:02:19;;;;;;;10.20;6.72;;;4.30;99.90;;;;;;5053612;28;20048;-69
2022/11/21 12:04:53;;;;;;;11.75;6.85;;;3.10;99.90;;;;;;5053724;28;20124;-69
2022/11/21 12:07:28;;;;;;;11.05;7.20;;;3.10;99.90;;;;;;5053291;28;20052;-68
2022/11/21 12:10:12;;;;;;;10.25;7.10;;;3.10;99.90;;;;;;5053163;28;20040;-69
2022/11/21 12:12:42;;;;;;;11.18;7.50;;;3.10;99.90;;;;;;5053485;28;20048;-69
2022/11/21 12:15:49;;;;;;;10.48;6.35;;;3.10;99.90;;;;;;5053805;28;20048;-69
2022/11/21 12:18:18;;;;;;;10.97;6.80;;;3.20;99.90;;;;;;5036234;28;20049;-69
2022/11/21 12:21:01;;;;;;;10.88;6.45;;;3.10;99.90;;;;;;5052905;28;20048;-70
2022/11/21 12:23:40;;;;;;;12.60;7.30;;;3.20;99.90;;;;;;5053058;28;20401;-69
2022/11/21 12:26:51;;;;;;;10.15;6.63;;;3.20;99.90;;;;;;5035054;28;20053;-69
2022/11/21 12:29:27;;;;;;;9.75;6.10;;;3.30;99.90;;;;;;4971906;28;20179;-69
2022/11/21 12:32:17;;;;;;;10.30;6.03;;;4.10;99.90;;;;;;4972699;28;20134;-70
2022/11/21 12:34:53;;;;;;;9.88;6.70;;;3.30;99.90;;;;;;5028998;28;20055;-69
2022/11/21 12:37:37;;;;;;;10.32;6.10;;;3.30;99.90;;;;;;5053537;28;20099;-68
2022/11/21 12:40:09;;;;;;;11.27;7.05;;;3.40;99.90;;;;;;5053359;28;20045;-69
2022/11/21 12:42:50;;;;;;;11.65;7.10;;;3.40;99.90;;;;;;5052902;28;20043;-69
2022/11/21 12:45:35;;;;;;;9.45;6.32;;;3.40;99.90;;;;;;5053435;28;20073;-69
2022/11/21 12:54:46;;;;;;;10.57;6.53;;;3.50;99.90;;;;;;5052612;28;20151;-69
2022/11/21 12:57:13;;;;;;;11.63;6.97;;;3.80;99.90;;;;;;5035348;28;20046;-69
2022/11/21 12:59:57;;;;;;;11.15;7.25;;;3.60;99.90;;;;;;5052820;28;20080;-69
2022/11/21 13:02:47;;;;;;;11.23;6.45;;;3.60;99.90;;;;;;5052697;28;20133;-69
2022/11/21 13:05:20;;;;;;;10.95;6.88;;;3.60;99.90;;;;;;5052684;28;20041;-69
2022/11/21 13:07:47;;;;;;;14.60;8.27;;;4.70;99.90;;;;;;5052664;28;20049;-69
2022/11/21 13:10:15;;;;;;;11.55;7.00;;;3.60;99.90;;;;;;5053020;28;20045;-69
2022/11/21 13:12:51;;;;;;;11.45;7.53;;;3.70;99.90;;;;;;5052567;28;20083;-69
2022/11/21 13:15:39;;;;;;;14.82;8.07;;;3.70;99.90;;;;;;5053318;28;20053;-69
2022/11/21 13:18:28;;;;;;;11.85;7.60;;;3.70;99.90;;;;;;5052502;28;20064;-70
2022/11/21 13:20:54;;;;;;;12.23;8.07;;;3.60;99.90;;;;;;5052208;28;20056;-69